Pagrindinis puslapis
METAR-TAF:

METAR-TAF

Oro uostai :

Puent Nuaras, Kongas

platuma: 04-49S, ilguma: 011-54E, Aukštis: 17 m

Dabartinis oras

Ataskaita buvo paskelbta 23 minutes, ne 10:00 UTC
Vėjas 8 kt iš Pietų
Temperatūra 28°C
Drėgmė 79%
Slėgis 1012 hPa
Matomumas 10 km arba daugiau
Išsisklaidę debesys ne aukštis 1400 ft
Su prošvaistėmis ne aukštis 2600 ft

METAR: FCPP 091000Z 19008KT 9999 SCT014 BKN026 28/24 Q1012 NOSIG

Laikas: 11:23 (10:23 UTC)

Prognozė

Ataskaita buvo paskelbta 5 valandos ir 23 minutes, ne 05:00 UTC
Prognozė galioja nuo 09 metu 06 UTC su 10 metu 06 UTC
Vėjas 6 kt iš Pietų
Matomumas: 8000 m
Išsisklaidę debesys ne aukštis 1200 ft
Su prošvaistėmis ne aukštis 2300 ft
Tikimybė 30%
nuo 09 metu 15 UTC su 09 metu 20 UTC
Išsisklaidę debesys ne aukštis 1300 ft
Su prošvaistėmis ne aukštis 2300 ft
Mažai debesys ne aukštis 3000 ft, Liūtiniai kamuoliniai debesys.

TAF: FCPP 090500Z 0906/1006 18006KT 8000 SCT012 BKN023 PROB30 0915/0920 SCT013 BKN023 FEW030CB

Orai ataskaitas ir orų prognozės (METAR, TAF).

turimą stotys yra geltonos ir raudonos taškus žemėlapyje.

Perkelti pele per norėdami pamatyti stoties vardą.

Tada spustelėkite, norėdami matyti oro stebėjimo ir prognozės.

Norėdami pakeisti žemėlapį: spustelėkite ant žalios mygtukų su juodo kryžiaus žemyn,; žalią mygtuką su brūkšneliu, jei norite nutolinti; arba žalių rodyklių gretimoms žemėlapius.


METAR-TAF: